Time;durP1;ratioP1;P1;durP2;ratioP2;P2;SDS_P1;SDS_P2;PMS_P1;PMS_P2;Temp;Humidity;BMP_temperature;BMP_pressure;BME280_temperature;BME280_humidity;BME280_pressure;Samples;Min_cycle;Max_cycle;Signal;HPM_P1;HPM_P2
2021/05/04 00:01:09;;;;;;;10.63;6.50;;;7.90;99.90;;;;;;6086121;23;20711;-70
2021/05/04 00:03:35;;;;;;;7.37;6.67;;;7.90;99.90;;;;;;6085066;23;20422;-70
2021/05/04 00:06:01;;;;;;;7.47;6.80;;;7.90;99.90;;;;;;6094298;23;20417;-70
2021/05/04 00:08:27;;;;;;;7.37;6.67;;;7.90;99.90;;;;;;6084138;23;20420;-70
2021/05/04 00:10:54;;;;;;;6.70;6.00;;;7.90;99.90;;;;;;6085153;23;20427;-70
2021/05/04 00:13:20;;;;;;;7.27;6.10;;;7.90;99.90;;;;;;6084156;23;20444;-70
2021/05/04 00:15:46;;;;;;;7.50;6.57;;;7.90;99.90;;;;;;6084993;23;20427;-69
2021/05/04 00:18:14;;;;;;;6.63;5.93;;;7.90;99.90;;;;;;6084637;23;20420;-69
2021/05/04 00:20:40;;;;;;;6.20;5.60;;;8.00;99.90;;;;;;6084311;23;20421;-70
2021/05/04 00:23:06;;;;;;;6.87;6.27;;;7.90;99.90;;;;;;6084288;23;20442;-69
2021/05/04 00:25:35;;;;;;;6.67;5.43;;;8.00;99.90;;;;;;6084106;23;20437;-69
2021/05/04 00:28:01;;;;;;;6.67;6.07;;;7.90;99.90;;;;;;6085175;23;20459;-69
2021/05/04 00:30:28;;;;;;;5.47;4.97;;;8.00;99.90;;;;;;6083716;23;20428;-69
2021/05/04 00:32:54;;;;;;;6.00;5.40;;;8.00;99.90;;;;;;6084237;23;20444;-69
2021/05/04 00:35:24;;;;;;;6.87;6.17;;;8.00;99.90;;;;;;6084416;23;20420;-69
2021/05/04 00:37:50;;;;;;;5.97;5.37;;;8.00;99.90;;;;;;6084586;23;20469;-69
2021/05/04 00:40:17;;;;;;;5.87;5.30;;;8.00;99.90;;;;;;6083827;23;20424;-69
2021/05/04 00:42:44;;;;;;;7.17;5.60;;;8.10;99.90;;;;;;6084294;23;20424;-69
2021/05/04 00:45:11;;;;;;;5.70;5.17;;;8.10;99.90;;;;;;6084551;23;20421;-69
2021/05/04 00:47:37;;;;;;;5.27;4.87;;;8.10;99.90;;;;;;6084334;23;20421;-69
2021/05/04 00:50:04;;;;;;;5.70;5.20;;;8.20;99.90;;;;;;6085450;23;20430;-69
2021/05/04 00:52:32;;;;;;;5.60;5.10;;;8.20;99.90;;;;;;6083617;23;20506;-69
2021/05/04 00:55:00;;;;;;;4.97;4.57;;;8.20;99.90;;;;;;6083654;23;20432;-69
2021/05/04 00:57:27;;;;;;;5.37;4.87;;;8.20;99.90;;;;;;6083659;23;20420;-69
2021/05/04 00:59:55;;;;;;;7.40;5.13;;;8.20;99.90;;;;;;6084791;23;20435;-69
2021/05/04 01:02:22;;;;;;;4.93;4.53;;;8.10;99.90;;;;;;6084646;23;20443;-69
2021/05/04 01:04:49;;;;;;;4.57;4.27;;;8.10;99.90;;;;;;6084561;23;20416;-69
2021/05/04 01:07:15;;;;;;;5.97;4.93;;;8.10;99.90;;;;;;6084971;23;20488;-69
2021/05/04 01:09:42;;;;;;;6.30;5.37;;;8.10;99.90;;;;;;6083935;23;20483;-69
2021/05/04 01:12:09;;;;;;;7.33;4.93;;;8.00;99.90;;;;;;6085396;23;20554;-70
2021/05/04 01:14:35;;;;;;;5.77;4.33;;;8.00;99.90;;;;;;6085515;23;20420;-70
2021/05/04 01:17:01;;;;;;;5.17;4.07;;;8.10;99.90;;;;;;6094767;23;20412;-69
2021/05/04 01:19:29;;;;;;;5.77;5.27;;;8.10;99.90;;;;;;6085246;23;20488;-69
2021/05/04 01:21:58;;;;;;;5.60;5.00;;;8.10;99.90;;;;;;6085912;23;20452;-69
2021/05/04 01:24:24;;;;;;;5.20;4.30;;;8.00;99.90;;;;;;6085822;23;20531;-70
2021/05/04 01:26:50;;;;;;;6.90;4.50;;;8.00;99.90;;;;;;6095139;23;20417;-69
2021/05/04 01:29:17;;;;;;;5.80;5.00;;;8.10;99.90;;;;;;6084532;23;20431;-69
2021/05/04 01:31:44;;;;;;;4.80;4.40;;;8.10;99.90;;;;;;6085947;23;20511;-69
2021/05/04 01:34:11;;;;;;;5.07;4.57;;;8.10;99.90;;;;;;6085510;23;20427;-70
2021/05/04 01:36:38;;;;;;;4.33;3.93;;;8.10;99.90;;;;;;6086521;23;20443;-69
2021/05/04 01:39:06;;;;;;;4.80;4.30;;;8.10;99.90;;;;;;6096191;23;20416;-69
2021/05/04 01:41:33;;;;;;;4.40;4.00;;;8.10;99.90;;;;;;6086663;23;20450;-69
2021/05/04 01:43:59;;;;;;;4.43;4.07;;;8.10;99.90;;;;;;6087448;23;20725;-69
2021/05/04 01:46:31;;;;;;;4.63;4.23;;;8.20;99.90;;;;;;6086383;23;20456;-70
2021/05/04 01:48:58;;;;;;;5.13;4.63;;;8.20;99.90;;;;;;6085259;23;20513;-69
2021/05/04 01:51:26;;;;;;;5.00;4.50;;;8.10;99.90;;;;;;6084838;23;20484;-70
2021/05/04 01:53:52;;;;;;;4.87;4.47;;;8.20;99.90;;;;;;6085275;23;20713;-69
2021/05/04 01:56:20;;;;;;;5.53;4.50;;;8.20;99.90;;;;;;6085730;23;20428;-69
2021/05/04 01:58:46;;;;;;;4.87;4.33;;;8.20;99.90;;;;;;6093690;23;20423;-69
2021/05/04 02:01:12;;;;;;;5.00;4.60;;;8.10;99.90;;;;;;6085642;23;20426;-71
2021/05/04 02:03:39;;;;;;;13.40;4.93;;;8.10;99.90;;;;;;6095968;23;20420;-69
2021/05/04 02:06:05;;;;;;;4.87;4.47;;;8.20;99.90;;;;;;6085971;23;20427;-69
2021/05/04 02:08:32;;;;;;;5.10;4.60;;;8.20;99.90;;;;;;6086519;23;20727;-69
2021/05/04 02:10:58;;;;;;;5.83;4.67;;;8.20;99.90;;;;;;6086134;23;20420;-69
2021/05/04 02:13:25;;;;;;;5.53;5.00;;;8.30;99.90;;;;;;6086018;23;20454;-69
2021/05/04 02:15:52;;;;;;;5.50;5.00;;;8.30;99.90;;;;;;6090740;23;20417;-68
2021/05/04 02:18:18;;;;;;;4.90;4.50;;;8.30;99.90;;;;;;6087474;23;20472;-68
2021/05/04 02:20:45;;;;;;;7.80;5.00;;;8.30;99.90;;;;;;6087248;23;20420;-69
2021/05/04 02:23:11;;;;;;;4.87;4.43;;;8.40;99.90;;;;;;6088494;23;20487;-69
2021/05/04 02:25:38;;;;;;;5.30;4.80;;;8.40;99.90;;;;;;6097482;23;20424;-69
2021/05/04 02:28:04;;;;;;;5.30;4.90;;;8.30;99.90;;;;;;6086777;23;20507;-68
2021/05/04 02:30:32;;;;;;;5.00;4.50;;;8.30;99.90;;;;;;6086887;23;20427;-69
2021/05/04 02:32:58;;;;;;;5.67;5.07;;;8.30;99.90;;;;;;6086073;23;20592;-69
2021/05/04 02:35:24;;;;;;;6.03;4.97;;;8.30;99.90;;;;;;6085166;23;20420;-69
2021/05/04 02:37:51;;;;;;;5.57;5.07;;;8.30;99.90;;;;;;6085486;23;20450;-69
2021/05/04 02:40:17;;;;;;;5.37;4.93;;;8.20;99.90;;;;;;6087109;23;20479;-69
2021/05/04 02:42:44;;;;;;;5.50;5.00;;;8.20;99.90;;;;;;6062543;23;20689;-70
2021/05/04 02:45:11;;;;;;;6.20;4.90;;;8.20;99.90;;;;;;6097485;23;20435;-70
2021/05/04 02:47:39;;;;;;;5.20;4.70;;;8.10;99.90;;;;;;6086915;23;20515;-68
2021/05/04 02:50:08;;;;;;;5.80;5.13;;;8.20;99.90;;;;;;6096752;23;20514;-69
2021/05/04 02:52:34;;;;;;;5.67;5.17;;;8.10;99.90;;;;;;6086649;23;20444;-69
2021/05/04 02:55:01;;;;;;;5.23;4.73;;;8.10;99.90;;;;;;6087588;23;20484;-69
2021/05/04 02:57:27;;;;;;;5.60;5.10;;;8.10;99.90;;;;;;6087229;23;20431;-70
2021/05/04 02:59:54;;;;;;;5.70;5.20;;;8.10;99.90;;;;;;6086559;23;20420;-69
2021/05/04 03:02:20;;;;;;;5.20;4.80;;;8.10;99.90;;;;;;6087482;23;20476;-71
2021/05/04 03:04:47;;;;;;;6.27;5.40;;;8.10;99.90;;;;;;6087333;23;20448;-70
2021/05/04 03:07:14;;;;;;;6.03;5.20;;;8.10;99.90;;;;;;6086945;23;20431;-68
2021/05/04 03:09:40;;;;;;;6.90;6.00;;;8.20;99.90;;;;;;6086298;23;20455;-71
2021/05/04 03:12:07;;;;;;;5.70;5.20;;;8.20;99.90;;;;;;6096618;23;20446;-69
2021/05/04 03:14:33;;;;;;;9.30;5.90;;;8.20;99.90;;;;;;6088549;23;20480;-69
2021/05/04 03:17:02;;;;;;;6.40;5.50;;;8.20;99.90;;;;;;6088347;23;20412;-70
2021/05/04 03:19:28;;;;;;;6.30;5.00;;;8.20;99.90;;;;;;6087746;23;20740;-73
2021/05/04 03:21:55;;;;;;;6.33;5.73;;;8.10;99.90;;;;;;6090178;23;20465;-69
2021/05/04 03:24:21;;;;;;;6.00;5.40;;;8.20;99.90;;;;;;6089766;23;20475;-69
2021/05/04 03:26:47;;;;;;;7.20;5.63;;;8.10;99.90;;;;;;6091311;23;20483;-69
2021/05/04 03:29:14;;;;;;;8.43;5.67;;;8.20;99.90;;;;;;6087640;23;20427;-69
2021/05/04 03:31:40;;;;;;;6.63;6.00;;;8.10;99.90;;;;;;6087130;23;20426;-70
2021/05/04 03:34:06;;;;;;;7.57;5.60;;;8.10;99.90;;;;;;6088217;23;20946;-69
2021/05/04 03:36:32;;;;;;;6.83;5.37;;;8.00;99.90;;;;;;6088119;23;20432;-69
2021/05/04 03:39:00;;;;;;;5.63;5.13;;;8.10;99.90;;;;;;6088440;23;20479;-69
2021/05/04 03:41:26;;;;;;;6.23;5.63;;;8.10;99.90;;;;;;6088541;23;20493;-70
2021/05/04 03:43:52;;;;;;;6.53;5.73;;;8.10;99.90;;;;;;6087319;23;20455;-69
2021/05/04 03:46:18;;;;;;;5.97;5.47;;;8.10;99.90;;;;;;6085928;23;20435;-70
2021/05/04 03:48:47;;;;;;;8.40;5.70;;;8.20;99.90;;;;;;6085859;23;20503;-69
2021/05/04 03:51:14;;;;;;;6.20;5.23;;;8.20;99.90;;;;;;6085655;23;20451;-69
2021/05/04 03:53:41;;;;;;;7.70;6.30;;;8.20;99.90;;;;;;6085472;23;20940;-69
2021/05/04 03:56:08;;;;;;;7.60;6.20;;;8.30;99.90;;;;;;6086559;23;20431;-69
2021/05/04 03:58:34;;;;;;;9.03;6.30;;;8.30;99.90;;;;;;6086924;23;20479;-69
2021/05/04 04:01:00;;;;;;;6.73;5.80;;;8.30;99.90;;;;;;6086144;23;20430;-69
2021/05/04 04:03:27;;;;;;;6.20;5.60;;;8.30;99.90;;;;;;6085716;23;20452;-69
2021/05/04 04:05:53;;;;;;;7.00;5.40;;;8.30;99.90;;;;;;6085736;23;20883;-69
2021/05/04 04:08:19;;;;;;;6.87;6.17;;;8.40;99.90;;;;;;6086351;23;20429;-69
2021/05/04 04:10:46;;;;;;;6.70;5.87;;;8.40;99.90;;;;;;6086898;23;20430;-69
2021/05/04 04:13:13;;;;;;;9.20;5.37;;;8.50;99.90;;;;;;6087879;23;20451;-69
2021/05/04 04:15:40;;;;;;;9.67;5.93;;;8.50;99.90;;;;;;6088398;23;20796;-69
2021/05/04 04:18:07;;;;;;;6.13;5.53;;;8.60;99.90;;;;;;6090819;23;20471;-69
2021/05/04 04:20:33;;;;;;;6.67;6.00;;;8.60;99.90;;;;;;6092290;23;20725;-69
2021/05/04 04:23:00;;;;;;;6.33;5.73;;;8.70;99.90;;;;;;6099527;23;20417;-69
2021/05/04 04:25:26;;;;;;;6.90;6.20;;;8.70;99.90;;;;;;6089921;23;20412;-69
2021/05/04 04:27:52;;;;;;;6.83;6.20;;;8.70;99.90;;;;;;6087512;23;20492;-69
2021/05/04 04:30:20;;;;;;;7.67;6.60;;;8.70;99.90;;;;;;6086283;23;20420;-70
2021/05/04 04:32:47;;;;;;;8.27;5.50;;;8.70;99.90;;;;;;6086657;23;20441;-69
2021/05/04 04:35:14;;;;;;;7.50;5.53;;;8.70;99.90;;;;;;6097312;23;20482;-69
2021/05/04 04:37:40;;;;;;;6.60;5.90;;;8.80;99.90;;;;;;6089680;23;20416;-69
2021/05/04 04:40:07;;;;;;;7.47;6.07;;;8.80;99.90;;;;;;6086839;23;20416;-69
2021/05/04 04:42:34;;;;;;;9.40;6.23;;;8.90;99.90;;;;;;6086450;23;20701;-69
2021/05/04 04:45:04;;;;;;;7.63;6.77;;;8.90;99.90;;;;;;6087008;23;20511;-69
2021/05/04 04:47:31;;;;;;;7.53;6.70;;;8.90;99.90;;;;;;6086545;23;20779;-70
2021/05/04 04:49:57;;;;;;;6.57;5.97;;;8.90;99.90;;;;;;6085411;23;20451;-70
2021/05/04 04:52:24;;;;;;;7.53;6.00;;;8.90;99.90;;;;;;6085754;23;20444;-69
2021/05/04 04:54:50;;;;;;;6.93;6.10;;;9.00;99.90;;;;;;6085868;23;20448;-69
2021/05/04 04:57:16;;;;;;;6.90;6.20;;;9.00;99.90;;;;;;6085273;23;20425;-70
2021/05/04 04:59:42;;;;;;;8.13;7.17;;;8.90;99.90;;;;;;6084553;23;20424;-70
2021/05/04 05:02:09;;;;;;;5.93;5.33;;;8.90;99.90;;;;;;6094919;23;20504;-70
2021/05/04 05:04:36;;;;;;;6.77;6.07;;;8.90;99.90;;;;;;6086091;23;20507;-69
2021/05/04 05:07:06;;;;;;;8.43;6.30;;;9.00;99.90;;;;;;6083905;23;20430;-70
2021/05/04 05:09:35;;;;;;;9.00;6.50;;;9.00;99.90;;;;;;6094536;23;20427;-68
2021/05/04 05:12:04;;;;;;;6.33;5.70;;;9.10;99.90;;;;;;6060468;23;20445;-69
2021/05/04 05:14:33;;;;;;;6.87;6.17;;;9.10;99.90;;;;;;6084658;23;20489;-69
2021/05/04 05:17:00;;;;;;;9.33;6.80;;;9.10;99.90;;;;;;6084517;23;20435;-69
2021/05/04 05:19:26;;;;;;;7.47;6.27;;;9.20;99.90;;;;;;6084827;23;20431;-68
2021/05/04 05:21:53;;;;;;;8.10;6.57;;;9.30;99.90;;;;;;6086361;23;20424;-70
2021/05/04 05:24:20;;;;;;;8.50;6.27;;;9.30;99.90;;;;;;6085772;23;20481;-69
2021/05/04 05:26:46;;;;;;;8.10;6.30;;;9.30;99.90;;;;;;6094040;23;20455;-69
2021/05/04 05:29:12;;;;;;;10.23;6.30;;;9.40;99.90;;;;;;6094206;23;20483;-69
2021/05/04 05:31:38;;;;;;;8.47;6.40;;;9.40;99.90;;;;;;6085817;23;20451;-68
2021/05/04 05:34:05;;;;;;;7.73;6.70;;;9.40;99.90;;;;;;6085732;23;20691;-69
2021/05/04 05:36:31;;;;;;;8.47;5.97;;;9.30;99.90;;;;;;6085090;23;20404;-69
2021/05/04 05:38:58;;;;;;;17.00;5.80;;;9.40;99.90;;;;;;6085607;23;20493;-69
2021/05/04 05:41:25;;;;;;;6.33;5.30;;;9.40;99.90;;;;;;6086426;23;20448;-69
2021/05/04 05:43:51;;;;;;;12.73;6.60;;;9.50;99.90;;;;;;6085636;23;20480;-70
2021/05/04 05:46:18;;;;;;;7.53;6.30;;;9.60;99.90;;;;;;6085982;23;20431;-69
2021/05/04 05:48:44;;;;;;;6.37;5.53;;;9.70;99.90;;;;;;6086109;23;20503;-69
2021/05/04 05:51:11;;;;;;;6.87;6.20;;;9.80;99.90;;;;;;6086653;23;20435;-69
2021/05/04 05:53:38;;;;;;;8.43;6.30;;;9.90;99.90;;;;;;6085659;23;20444;-71
2021/05/04 05:56:05;;;;;;;8.97;6.50;;;9.90;99.90;;;;;;6096248;23;20424;-70
2021/05/04 05:58:32;;;;;;;7.47;6.10;;;10.00;99.90;;;;;;6088284;23;20452;-70
2021/05/04 06:00:59;;;;;;;8.47;6.33;;;10.00;99.90;;;;;;6099030;23;20424;-71
2021/05/04 06:03:27;;;;;;;7.27;6.27;;;10.10;99.90;;;;;;6100233;23;20423;-70
2021/05/04 06:05:53;;;;;;;7.43;6.23;;;10.20;99.90;;;;;;6101222;23;20413;-71
2021/05/04 06:08:20;;;;;;;7.30;5.63;;;10.30;99.90;;;;;;6090863;23;20404;-70
2021/05/04 06:10:47;;;;;;;6.70;5.50;;;10.40;99.90;;;;;;6089544;23;20508;-68
2021/05/04 06:13:15;;;;;;;10.30;6.07;;;10.40;99.90;;;;;;6071064;23;20459;-70
2021/05/04 06:15:44;;;;;;;9.27;6.13;;;10.50;99.90;;;;;;6071195;23;20483;-70
2021/05/04 06:18:12;;;;;;;6.90;5.90;;;10.60;99.90;;;;;;6088780;23;20412;-69
2021/05/04 06:20:39;;;;;;;6.53;5.80;;;10.70;99.90;;;;;;6089459;23;20753;-69
2021/05/04 06:23:05;;;;;;;7.80;5.93;;;10.80;99.90;;;;;;6090330;23;20413;-68
2021/05/04 06:25:32;;;;;;;7.87;6.37;;;10.90;99.90;;;;;;6091270;23;20444;-70
2021/05/04 06:28:01;;;;;;;6.77;5.67;;;11.00;99.90;;;;;;6100605;23;20484;-69
2021/05/04 06:30:33;;;;;;;15.50;6.70;;;11.10;99.90;;;;;;6090263;23;20421;-70
2021/05/04 06:33:02;;;;;;;8.13;6.17;;;11.20;99.90;;;;;;6088588;23;20819;-70
2021/05/04 06:35:29;;;;;;;8.93;5.93;;;11.30;99.90;;;;;;6089281;23;20515;-70
2021/05/04 06:37:55;;;;;;;8.77;5.87;;;11.30;99.90;;;;;;6090904;23;20448;-69
2021/05/04 06:40:22;;;;;;;7.37;5.50;;;11.50;99.90;;;;;;6091390;23;20420;-69
2021/05/04 06:42:49;;;;;;;7.00;5.30;;;11.60;99.90;;;;;;6089741;23;20783;-69
2021/05/04 06:45:15;;;;;;;6.57;5.20;;;11.70;99.90;;;;;;6089867;23;20408;-69
2021/05/04 06:47:42;;;;;;;5.87;4.87;;;11.70;99.90;;;;;;6091402;23;20421;-69
2021/05/04 06:50:09;;;;;;;7.87;5.90;;;11.70;99.90;;;;;;6092317;23;20456;-70
2021/05/04 06:52:36;;;;;;;8.50;5.50;;;11.90;99.90;;;;;;6093341;23;20448;-69
2021/05/04 06:55:02;;;;;;;6.70;4.87;;;12.00;99.90;;;;;;6093376;23;20440;-69
2021/05/04 06:57:28;;;;;;;5.67;5.10;;;12.10;99.90;;;;;;6092628;23;20435;-69
2021/05/04 06:59:55;;;;;;;9.40;4.90;;;12.10;99.90;;;;;;6093181;23;20512;-69
2021/05/04 07:02:21;;;;;;;4.83;4.33;;;12.20;99.90;;;;;;6092360;23;20413;-69
2021/05/04 07:04:48;;;;;;;5.00;4.50;;;12.30;99.90;;;;;;6092678;23;20475;-69
2021/05/04 07:07:14;;;;;;;5.20;4.70;;;12.40;99.90;;;;;;6101639;23;20475;-69
2021/05/04 07:09:41;;;;;;;5.23;4.73;;;12.30;99.90;;;;;;6092529;23;20419;-69
2021/05/04 07:12:08;;;;;;;6.40;5.03;;;12.30;99.90;;;;;;6102096;23;20412;-69
2021/05/04 07:14:34;;;;;;;7.60;4.70;;;12.40;99.90;;;;;;6092819;23;20416;-69
2021/05/04 07:17:02;;;;;;;7.73;4.73;;;12.30;99.90;;;;;;6102295;23;20401;-69
2021/05/04 07:19:28;;;;;;;5.60;4.10;;;12.40;99.90;;;;;;6079376;23;20455;-67
2021/05/04 07:21:56;;;;;;;5.73;4.93;;;12.40;99.90;;;;;;6074535;23;20701;-67
2021/05/04 07:24:22;;;;;;;7.37;4.90;;;12.40;99.90;;;;;;6074970;23;20440;-68
2021/05/04 07:26:49;;;;;;;6.67;5.00;;;12.30;99.90;;;;;;6073953;23;20478;-68
2021/05/04 07:29:16;;;;;;;7.00;4.60;;;12.40;99.90;;;;;;6074397;23;20427;-67
2021/05/04 07:31:43;;;;;;;6.50;5.20;;;12.40;99.90;;;;;;6073849;23;20422;-67
2021/05/04 07:34:10;;;;;;;5.03;4.13;;;12.40;99.90;;;;;;6074106;23;20455;-68
2021/05/04 07:36:36;;;;;;;10.80;4.70;;;12.40;99.90;;;;;;6073246;23;20420;-67
2021/05/04 07:39:04;;;;;;;7.13;5.53;;;12.40;99.90;;;;;;6072910;23;20421;-68
2021/05/04 07:41:32;;;;;;;4.33;3.93;;;12.50;99.90;;;;;;6072726;23;20503;-67
2021/05/04 07:43:58;;;;;;;6.43;4.77;;;12.40;99.90;;;;;;6082534;23;20500;-67
2021/05/04 07:46:25;;;;;;;12.10;5.57;;;12.30;99.90;;;;;;6072679;23;20421;-67
2021/05/04 07:48:54;;;;;;;7.47;4.30;;;12.20;99.90;;;;;;6072083;23;20492;-68
2021/05/04 07:51:20;;;;;;;4.50;4.00;;;11.90;99.90;;;;;;6072589;23;20927;-69
2021/05/04 07:53:46;;;;;;;12.53;4.20;;;11.60;99.90;;;;;;6072079;23;20451;-69
2021/05/04 07:56:13;;;;;;;6.57;4.90;;;11.30;99.90;;;;;;6072484;23;20424;-67
2021/05/04 07:58:40;;;;;;;6.37;5.30;;;11.00;99.90;;;;;;6074184;23;20420;-68
2021/05/04 08:01:07;;;;;;;5.20;4.70;;;10.90;99.90;;;;;;6080571;23;20412;-69
2021/05/04 08:03:33;;;;;;;6.53;4.57;;;10.70;99.90;;;;;;6089480;23;20444;-70
2021/05/04 08:06:00;;;;;;;6.07;4.70;;;10.60;99.90;;;;;;6087568;23;20427;-70
2021/05/04 08:08:26;;;;;;;5.43;4.93;;;10.40;99.90;;;;;;6087018;23;20431;-69
2021/05/04 08:10:53;;;;;;;5.57;5.07;;;10.40;99.90;;;;;;6090541;23;20511;-70
2021/05/04 08:13:21;;;;;;;5.40;4.90;;;10.40;99.90;;;;;;6091417;23;20472;-70
2021/05/04 08:15:48;;;;;;;4.53;4.13;;;10.50;99.90;;;;;;6091140;23;20452;-69
2021/05/04 08:18:16;;;;;;;5.07;4.57;;;10.60;99.90;;;;;;6101891;23;20424;-70
2021/05/04 08:20:48;;;;;;;5.87;4.70;;;10.80;99.90;;;;;;6092737;23;20424;-69
2021/05/04 08:23:16;;;;;;;5.83;5.23;;;10.90;99.90;;;;;;6090933;23;20417;-71
2021/05/04 08:25:42;;;;;;;5.27;4.77;;;11.10;99.90;;;;;;6092146;23;20392;-69
2021/05/04 08:28:09;;;;;;;5.30;4.70;;;11.30;99.90;;;;;;6100745;23;20444;-70
2021/05/04 08:30:36;;;;;;;7.50;4.77;;;11.30;99.90;;;;;;6089783;23;20421;-70
2021/05/04 08:33:03;;;;;;;6.37;5.07;;;11.40;99.90;;;;;;6088174;23;20922;-69
2021/05/04 08:35:30;;;;;;;5.20;4.80;;;11.40;99.90;;;;;;6098151;23;20440;-70
2021/05/04 08:37:57;;;;;;;5.20;4.70;;;11.50;99.90;;;;;;6098036;23;20431;-70
2021/05/04 08:40:25;;;;;;;4.50;4.10;;;11.60;99.90;;;;;;6088827;23;20444;-70
2021/05/04 08:42:52;;;;;;;4.57;4.10;;;11.60;99.90;;;;;;6091022;23;20657;-69
2021/05/04 08:45:18;;;;;;;5.07;4.57;;;11.70;99.90;;;;;;6089661;23;20903;-71
2021/05/04 08:47:47;;;;;;;4.77;4.37;;;11.80;99.90;;;;;;6090222;23;20444;-70
2021/05/04 08:50:15;;;;;;;4.97;4.53;;;12.00;99.90;;;;;;6088287;23;20455;-70
2021/05/04 08:52:41;;;;;;;4.73;4.33;;;12.00;99.90;;;;;;6100591;23;20492;-70
2021/05/04 08:55:10;;;;;;;6.50;4.53;;;12.10;99.90;;;;;;6098811;23;20436;-69
2021/05/04 08:57:37;;;;;;;4.47;3.57;;;12.20;99.90;;;;;;6098959;23;20417;-72
2021/05/04 09:00:05;;;;;;;4.47;3.70;;;12.20;99.90;;;;;;6087110;23;20421;-69
2021/05/04 09:02:35;;;;;;;7.87;4.10;;;12.30;99.90;;;;;;6086032;23;20417;-70
2021/05/04 09:05:15;;;;;;;6.63;4.10;;;12.50;99.90;;;;;;6086816;23;20425;-70
2021/05/04 09:07:44;;;;;;;6.07;3.90;;;12.70;99.90;;;;;;6078577;23;20851;-69
2021/05/04 09:13:00;;;;;;;6.20;4.57;;;12.90;99.90;;;;;;6086680;23;20937;-68
2021/05/04 09:15:57;;;;;;;7.50;4.13;;;12.90;99.90;;;;;;6082771;23;20401;-69
2021/05/04 09:21:31;;;;;;;6.13;3.73;;;12.80;99.90;;;;;;6091995;23;20427;-69
2021/05/04 09:23:58;;;;;;;3.77;3.47;;;12.80;99.90;;;;;;6082754;23;20495;-69
2021/05/04 09:26:32;;;;;;;3.53;3.13;;;12.80;99.90;;;;;;6081515;23;20455;-69
2021/05/04 09:28:59;;;;;;;4.53;4.00;;;12.90;99.90;;;;;;6092490;23;20431;-69
2021/05/04 09:31:27;;;;;;;3.80;3.50;;;13.00;99.90;;;;;;6082230;23;20450;-69
2021/05/04 09:33:55;;;;;;;4.50;3.63;;;13.10;99.90;;;;;;6081805;23;20440;-70
2021/05/04 09:36:45;;;;;;;3.50;3.20;;;13.30;99.90;;;;;;6081079;23;20488;-69
2021/05/04 09:39:25;;;;;;;3.47;3.17;;;13.50;99.90;;;;;;6082058;23;20464;-69
2021/05/04 09:41:53;;;;;;;4.10;3.10;;;13.60;99.90;;;;;;6083912;23;20431;-69
2021/05/04 09:44:36;;;;;;;3.27;2.97;;;13.70;99.90;;;;;;6086564;23;20440;-69
2021/05/04 09:47:03;;;;;;;3.27;2.97;;;13.80;99.90;;;;;;6087403;23;20452;-69
2021/05/04 09:49:30;;;;;;;7.20;3.40;;;13.90;99.90;;;;;;6087642;23;20455;-69
2021/05/04 09:52:28;;;;;;;3.23;2.93;;;13.90;99.90;;;;;;6083161;23;20503;-69
2021/05/04 09:55:04;;;;;;;13.23;2.70;;;13.90;99.90;;;;;;6085434;23;20424;-69
2021/05/04 09:57:41;;;;;;;3.57;2.87;;;13.80;99.90;;;;;;6089401;23;20412;-69
2021/05/04 10:00:12;;;;;;;3.70;2.43;;;13.90;99.90;;;;;;6086661;23;20410;-70
2021/05/04 10:02:40;;;;;;;3.33;2.07;;;14.10;99.90;;;;;;6096628;23;20416;-70
2021/05/04 10:05:08;;;;;;;4.83;2.77;;;14.30;99.90;;;;;;6087243;23;20416;-70
2021/05/04 10:07:38;;;;;;;4.33;2.10;;;14.40;99.90;;;;;;6088608;23;20424;-71
2021/05/04 10:10:06;;;;;;;3.33;2.63;;;14.50;99.90;;;;;;6100071;23;20405;-71
2021/05/04 10:12:33;;;;;;;2.90;2.17;;;14.60;99.90;;;;;;6086841;23;20443;-70
2021/05/04 10:15:03;;;;;;;7.73;2.20;;;14.70;99.90;;;;;;6082931;23;20487;-70
2021/05/04 10:17:33;;;;;;;3.70;2.10;;;14.80;99.90;;;;;;6085889;23;20417;-72
2021/05/04 10:20:02;;;;;;;2.70;2.50;;;14.90;99.90;;;;;;6087634;23;20440;-70
2021/05/04 10:22:29;;;;;;;5.07;2.20;;;14.90;99.90;;;;;;6090275;23;21031;-70
2021/05/04 10:24:57;;;;;;;4.10;2.07;;;14.90;99.90;;;;;;6085949;23;20444;-70
2021/05/04 10:27:24;;;;;;;4.30;2.30;;;14.90;99.90;;;;;;6086452;23;20425;-70
2021/05/04 10:29:54;;;;;;;2.13;1.93;;;15.10;99.90;;;;;;6089418;23;20420;-71
2021/05/04 10:32:48;;;;;;;2.20;1.70;;;15.20;99.90;;;;;;6089756;23;20416;-71
2021/05/04 10:35:34;;;;;;;4.23;2.17;;;15.10;99.90;;;;;;6087805;23;20473;-70
2021/05/04 10:38:03;;;;;;;5.30;2.17;;;15.00;99.90;;;;;;6095837;23;20408;-71
2021/05/04 10:40:34;;;;;;;2.00;1.90;;;15.00;99.90;;;;;;6086119;23;20479;-72
2021/05/04 10:43:01;;;;;;;2.30;2.10;;;15.00;99.90;;;;;;6087951;23;20392;-70
2021/05/04 10:45:42;;;;;;;5.07;2.87;;;14.90;99.90;;;;;;6099981;23;20415;-71
2021/05/04 10:48:09;;;;;;;3.20;2.03;;;14.70;99.90;;;;;;6089249;23;20503;-71
2021/05/04 10:50:50;;;;;;;5.73;2.50;;;14.80;99.90;;;;;;6087486;23;20425;-70
2021/05/04 10:53:17;;;;;;;2.43;2.03;;;14.70;99.90;;;;;;6097655;23;20475;-71
2021/05/04 10:56:10;;;;;;;8.80;1.73;;;14.70;99.90;;;;;;6087656;23;20435;-72
2021/05/04 10:58:51;;;;;;;8.30;2.43;;;14.70;99.90;;;;;;6096838;23;20435;-70
2021/05/04 11:01:20;;;;;;;2.70;2.27;;;14.70;99.90;;;;;;6086585;23;20432;-71
2021/05/04 11:03:55;;;;;;;5.90;2.53;;;14.80;99.90;;;;;;6085828;23;20416;-70
2021/05/04 11:06:47;;;;;;;2.50;2.20;;;15.00;99.90;;;;;;6087114;23;20820;-71
2021/05/04 11:09:21;;;;;;;6.90;2.43;;;15.00;99.90;;;;;;6079896;23;20922;-70
2021/05/04 11:11:50;;;;;;;4.80;1.70;;;14.90;99.90;;;;;;6088751;23;20396;-71
2021/05/04 11:14:28;;;;;;;3.50;2.10;;;14.80;99.90;;;;;;6088980;23;20444;-71
2021/05/04 11:17:16;;;;;;;2.53;2.30;;;14.70;99.90;;;;;;6089826;23;20490;-71
2021/05/04 11:19:47;;;;;;;12.73;2.10;;;14.70;99.90;;;;;;6098898;23;20393;-69
2021/05/04 11:22:22;;;;;;;9.73;2.63;;;14.70;99.90;;;;;;6072457;23;20405;-69
2021/05/04 11:24:52;;;;;;;4.27;1.87;;;14.90;99.90;;;;;;6071856;23;20540;-68
2021/05/04 11:27:33;;;;;;;9.43;2.07;;;15.10;99.90;;;;;;6072048;23;20497;-68
2021/05/04 11:30:03;;;;;;;4.53;2.00;;;15.30;99.90;;;;;;6072031;23;20704;-68
2021/05/04 11:32:44;;;;;;;3.20;1.97;;;15.40;99.90;;;;;;6073077;23;20423;-68
2021/05/04 11:35:12;;;;;;;2.27;1.93;;;15.60;99.90;;;;;;6075477;23;20412;-68
2021/05/04 11:37:43;;;;;;;2.90;2.27;;;15.70;99.90;;;;;;6074910;23;20524;-69
2021/05/04 11:40:15;;;;;;;3.50;1.90;;;15.70;99.90;;;;;;6084385;23;20471;-67
2021/05/04 11:42:45;;;;;;;2.50;1.60;;;15.70;99.90;;;;;;6075301;23;20408;-68
2021/05/04 11:45:13;;;;;;;3.67;1.50;;;15.50;99.90;;;;;;6075770;23;20435;-68
2021/05/04 11:47:41;;;;;;;2.27;1.60;;;15.40;99.90;;;;;;6075277;23;20424;-68
2021/05/04 11:50:13;;;;;;;2.47;1.50;;;15.20;99.90;;;;;;6074095;23;20421;-68
2021/05/04 11:52:41;;;;;;;1.70;1.30;;;15.00;99.90;;;;;;6074423;23;20454;-69
2021/05/04 11:55:11;;;;;;;1.97;1.20;;;15.00;99.90;;;;;;6074707;23;20418;-68
2021/05/04 11:57:39;;;;;;;1.80;1.40;;;15.00;99.90;;;;;;6074845;23;20692;-68
2021/05/04 12:00:09;;;;;;;2.67;1.30;;;15.00;99.90;;;;;;6075492;23;20424;-68
2021/05/04 12:02:36;;;;;;;4.37;1.60;;;14.90;99.90;;;;;;6073513;23;20431;-68
2021/05/04 12:05:03;;;;;;;1.70;1.30;;;14.90;99.90;;;;;;6072820;23;20420;-68
2021/05/04 12:07:34;;;;;;;5.33;1.40;;;15.00;99.90;;;;;;6073442;23;20457;-69
2021/05/04 12:10:01;;;;;;;2.50;1.30;;;15.10;99.90;;;;;;6075479;23;20512;-69
2021/05/04 12:12:40;;;;;;;2.90;2.03;;;14.90;99.90;;;;;;6074851;23;20781;-68
2021/05/04 12:15:09;;;;;;;2.97;1.87;;;14.90;99.90;;;;;;6074391;23;20700;-69
2021/05/04 12:17:36;;;;;;;5.37;1.40;;;14.90;99.90;;;;;;6074256;23;20484;-68
2021/05/04 12:20:10;;;;;;;2.50;1.47;;;14.80;99.90;;;;;;6074787;23;20425;-69
2021/05/04 12:22:43;;;;;;;2.17;1.70;;;14.80;99.90;;;;;;6083833;23;20480;-70
2021/05/04 12:25:11;;;;;;;6.23;1.70;;;14.70;99.90;;;;;;6075278;23;20444;-69
2021/05/04 12:27:37;;;;;;;2.10;1.50;;;14.60;99.90;;;;;;6075260;23;20491;-69
2021/05/04 12:30:07;;;;;;;2.73;2.00;;;14.60;99.90;;;;;;6076304;23;20459;-69
2021/05/04 12:32:34;;;;;;;2.10;1.70;;;14.80;99.90;;;;;;6075817;23;20860;-69
2021/05/04 12:35:14;;;;;;;2.50;1.83;;;14.80;99.90;;;;;;6076043;23;20420;-70
2021/05/04 12:37:41;;;;;;;4.40;1.53;;;14.80;99.90;;;;;;6074309;23;20499;-69
2021/05/04 12:40:15;;;;;;;2.90;1.90;;;14.70;99.90;;;;;;6074032;23;20895;-69
2021/05/04 12:42:43;;;;;;;1.90;1.70;;;14.50;99.90;;;;;;6074056;23;20436;-69
2021/05/04 12:45:11;;;;;;;3.00;1.50;;;14.50;99.90;;;;;;6074162;23;20748;-69
2021/05/04 12:47:49;;;;;;;6.63;1.90;;;14.60;99.90;;;;;;6074930;23;20429;-69
2021/05/04 12:50:30;;;;;;;2.03;1.80;;;14.70;99.90;;;;;;6074415;23;20404;-68
2021/05/04 12:52:56;;;;;;;3.63;1.90;;;14.90;99.90;;;;;;6082891;23;20527;-69
2021/05/04 12:55:23;;;;;;;2.50;1.70;;;15.10;99.90;;;;;;6073624;23;20424;-69
2021/05/04 12:58:07;;;;;;;2.47;1.70;;;15.30;99.90;;;;;;6075300;23;20421;-67
2021/05/04 13:00:34;;;;;;;2.00;1.67;;;15.50;99.90;;;;;;6077032;23;20411;-68
2021/05/04 13:03:06;;;;;;;3.00;1.67;;;15.40;99.90;;;;;;6077206;23;20436;-68